createdAt,value
2018-07-11T00:00:22.231Z,93.91
2018-07-11T00:01:22.186Z,94.01
2018-07-11T00:02:22.203Z,93.63
2018-07-11T00:03:22.220Z,93.68
2018-07-11T00:04:22.291Z,93.73
2018-07-11T00:05:22.255Z,94.01
2018-07-11T00:06:22.327Z,93.73
2018-07-11T00:07:22.288Z,93.63
2018-07-11T00:08:22.304Z,94.40
2018-07-11T00:09:22.324Z,94.01
2018-07-11T00:10:22.347Z,93.82
2018-07-11T00:11:22.355Z,93.82
2018-07-11T00:12:22.397Z,93.87
2018-07-11T00:13:22.389Z,93.82
2018-07-11T00:14:22.407Z,94.01
2018-07-11T00:15:22.426Z,93.34
2018-07-11T00:16:22.441Z,93.29
2018-07-11T00:17:22.458Z,93.29
2018-07-11T00:18:22.554Z,93.24
2018-07-11T00:19:22.492Z,93.29
2018-07-11T00:20:22.514Z,93.53
2018-07-11T00:21:22.530Z,94.11
2018-07-11T00:22:22.543Z,94.01
2018-07-11T00:23:22.561Z,93.48
2018-07-11T00:24:22.593Z,93.38
2018-07-11T00:25:22.593Z,93.29
2018-07-11T00:26:22.611Z,93.38
2018-07-11T00:27:22.635Z,93.87
2018-07-11T00:28:22.646Z,93.38
2018-07-11T00:29:22.661Z,93.53
2018-07-11T00:30:22.701Z,93.68
2018-07-11T00:31:22.700Z,93.68
2018-07-11T00:32:22.714Z,93.48
2018-07-11T00:33:22.730Z,93.38
2018-07-11T00:34:22.796Z,93.29
2018-07-11T00:35:22.765Z,93.19
2018-07-11T00:36:22.805Z,93.58
2018-07-11T00:37:23.013Z,93.38
2018-07-11T00:38:22.816Z,93.38
2018-07-11T00:39:22.835Z,93.29
2018-07-11T00:40:22.852Z,93.29
2018-07-11T00:41:22.867Z,93.38
2018-07-11T00:42:22.912Z,93.19
2018-07-11T00:43:22.902Z,93.29
2018-07-11T00:44:22.923Z,93.38
2018-07-11T00:45:22.937Z,93.19
2018-07-11T00:46:22.953Z,93.29
2018-07-11T00:47:22.974Z,93.38
2018-07-11T00:48:22.987Z,93.48
2018-07-11T00:49:23.007Z,92.91
2018-07-11T00:50:23.023Z,92.52
2018-07-11T00:51:23.042Z,92.81
2018-07-11T00:52:23.061Z,92.91
2018-07-11T00:53:23.074Z,93.38
2018-07-11T00:54:23.094Z,93.48
2018-07-11T00:55:23.111Z,93.38
2018-07-11T00:56:23.127Z,93.00
2018-07-11T00:57:23.143Z,93.00
2018-07-11T00:58:23.161Z,93.19
2018-07-11T00:59:23.178Z,92.91
2018-07-11T01:00:23.195Z,92.81
2018-07-11T01:01:23.212Z,93.19
2018-07-11T01:02:23.229Z,93.10
2018-07-11T01:03:23.247Z,93.19
2018-07-11T01:04:23.264Z,93.19
2018-07-11T01:05:23.282Z,92.52
2018-07-11T01:06:23.298Z,92.23
2018-07-11T01:07:23.322Z,92.52
2018-07-11T01:08:23.333Z,92.52
2018-07-11T01:09:23.352Z,92.52
2018-07-11T01:10:23.368Z,92.13
2018-07-11T01:11:23.384Z,92.23
2018-07-11T01:12:23.406Z,92.52
2018-07-11T01:13:23.457Z,92.61
2018-07-11T01:14:23.436Z,92.52
2018-07-11T01:15:23.456Z,92.81
2018-07-11T01:16:23.470Z,92.91
2018-07-11T01:17:23.488Z,93.00
2018-07-11T01:18:23.505Z,93.19
2018-07-11T01:19:23.566Z,93.19
2018-07-11T01:20:23.539Z,93.19
2018-07-11T01:21:23.564Z,93.19
2018-07-11T01:22:23.579Z,92.91
2018-07-11T01:23:23.598Z,92.91
2018-07-11T01:24:23.609Z,92.13
2018-07-11T01:25:23.627Z,92.33
2018-07-11T01:26:23.645Z,92.23
2018-07-11T01:27:23.664Z,92.23
2018-07-11T01:28:23.678Z,92.61
2018-07-11T01:29:23.694Z,92.52
2018-07-11T01:30:23.712Z,92.52
2018-07-11T01:31:23.729Z,92.52
2018-07-11T01:32:23.775Z,92.81
2018-07-11T01:33:23.763Z,92.61
2018-07-11T01:34:23.781Z,92.52
2018-07-11T01:35:23.797Z,92.52
2018-07-11T01:36:23.814Z,92.33
2018-07-11T01:37:23.833Z,92.61
2018-07-11T01:38:23.851Z,92.33
2018-07-11T01:39:23.868Z,92.52
2018-07-11T01:40:23.883Z,92.33
2018-07-11T01:41:23.901Z,92.52
2018-07-11T01:42:23.931Z,92.52
2018-07-11T01:43:23.936Z,92.61
2018-07-11T01:44:23.951Z,92.61
2018-07-11T01:45:23.969Z,92.43
2018-07-11T01:46:23.987Z,92.52
2018-07-11T01:47:24.004Z,92.43
2018-07-11T01:48:24.019Z,92.43
2018-07-11T01:49:24.036Z,92.52
2018-07-11T01:50:24.113Z,92.52
2018-07-11T01:51:24.073Z,92.71
2018-07-11T01:52:24.088Z,92.04
2018-07-11T01:53:24.107Z,92.23
2018-07-11T01:54:24.122Z,92.43
2018-07-11T01:55:24.140Z,92.43
2018-07-11T01:56:24.192Z,92.52
2018-07-11T01:57:24.173Z,92.13
2018-07-11T01:58:24.191Z,92.04
2018-07-11T01:59:24.209Z,92.61
2018-07-11T02:00:24.225Z,92.04
2018-07-11T02:01:24.242Z,92.33
2018-07-11T02:02:24.259Z,92.33
2018-07-11T02:03:24.280Z,92.52
2018-07-11T02:04:24.291Z,91.66
2018-07-11T02:05:24.312Z,92.52
2018-07-11T02:06:24.327Z,91.94
2018-07-11T02:07:24.345Z,91.66
2018-07-11T02:08:24.362Z,91.94
2018-07-11T02:09:24.401Z,91.94
2018-07-11T02:10:24.394Z,91.94
2018-07-11T02:11:24.415Z,91.85
2018-07-11T02:12:24.432Z,92.43
2018-07-11T02:13:24.449Z,91.94
2018-07-11T02:14:24.468Z,91.66
2018-07-11T02:15:24.483Z,91.85
2018-07-11T02:16:24.499Z,91.61
2018-07-11T02:17:24.516Z,91.80
2018-07-11T02:18:24.533Z,91.85
2018-07-11T02:19:24.552Z,92.13
2018-07-11T02:20:24.580Z,92.13
2018-07-11T02:21:24.584Z,91.66
2018-07-11T02:22:24.604Z,91.66
2018-07-11T02:23:24.619Z,91.66
2018-07-11T02:24:24.635Z,91.75
2018-07-11T02:25:24.652Z,91.94
2018-07-11T02:26:24.672Z,91.90
2018-07-11T02:27:24.703Z,91.80
2018-07-11T02:28:24.775Z,91.80
2018-07-11T02:29:24.720Z,91.61
2018-07-11T02:30:24.738Z,91.80
2018-07-11T02:31:24.755Z,91.80
2018-07-11T02:32:24.772Z,91.71
2018-07-11T02:33:24.788Z,91.71
2018-07-11T02:34:24.816Z,91.99
2018-07-11T02:35:24.883Z,91.80
2018-07-11T02:36:24.840Z,92.09
2018-07-11T02:37:24.859Z,92.09
2018-07-11T02:38:24.874Z,92.04
2018-07-11T02:39:24.891Z,92.13
2018-07-11T02:40:24.945Z,91.56
2018-07-11T02:41:24.926Z,91.66
2018-07-11T02:42:24.947Z,91.46
2018-07-11T02:43:24.959Z,91.75
2018-07-11T02:44:24.987Z,91.85
2018-07-11T02:45:24.995Z,91.42
2018-07-11T02:46:25.012Z,91.42
2018-07-11T02:47:25.027Z,91.90
2018-07-11T02:48:25.050Z,91.61
2018-07-11T02:49:25.062Z,92.09
2018-07-11T02:50:25.084Z,91.80
2018-07-11T02:51:25.100Z,92.09
2018-07-11T02:52:25.113Z,91.80
2018-07-11T02:53:25.132Z,91.61
2018-07-11T02:54:25.152Z,91.80
2018-07-11T02:55:25.165Z,91.61
2018-07-11T02:56:25.182Z,91.61
2018-07-11T02:57:25.213Z,91.71
2018-07-11T02:58:25.272Z,91.80
2018-07-11T02:59:25.234Z,91.71
2018-07-11T03:00:25.249Z,91.99
2018-07-11T03:01:25.277Z,92.09
2018-07-11T03:02:25.284Z,91.61
2018-07-11T03:03:25.302Z,91.90
2018-07-11T03:04:25.319Z,92.29
2018-07-11T03:05:25.335Z,92.29
2018-07-11T03:06:25.351Z,92.09
2018-07-11T03:07:25.368Z,92.29
2018-07-11T03:08:25.386Z,92.47
2018-07-11T03:09:25.406Z,92.57
2018-07-11T03:10:25.418Z,92.38
2018-07-11T03:11:25.441Z,92.67
2018-07-11T03:12:25.453Z,92.47
2018-07-11T03:13:25.470Z,92.38
2018-07-11T03:14:25.498Z,92.47
2018-07-11T03:15:25.504Z,92.47
2018-07-11T03:16:25.532Z,92.47
2018-07-11T03:17:25.539Z,92.57
2018-07-11T03:18:25.557Z,92.38
2018-07-11T03:19:25.573Z,92.47
2018-07-11T03:20:25.588Z,92.47
2018-07-11T03:21:25.606Z,92.67
2018-07-11T03:22:25.624Z,92.67
2018-07-11T03:23:25.641Z,92.76
2018-07-11T03:24:25.715Z,92.57
2018-07-11T03:25:25.673Z,92.47
2018-07-11T03:26:25.743Z,92.57
2018-07-11T03:27:25.720Z,92.67
2018-07-11T03:28:25.734Z,92.47
2018-07-11T03:29:25.740Z,92.57
2018-07-11T03:30:25.769Z,92.47
2018-07-11T03:31:25.778Z,92.29
2018-07-11T03:32:25.823Z,92.29
2018-07-11T03:33:25.810Z,92.29
2018-07-11T03:34:25.828Z,92.47
2018-07-11T03:35:25.915Z,92.47
2018-07-11T03:36:25.860Z,92.47
2018-07-11T03:37:25.878Z,92.47
2018-07-11T03:38:25.896Z,92.47
2018-07-11T03:39:25.911Z,92.47
2018-07-11T03:40:25.927Z,92.29
2018-07-11T03:41:25.945Z,92.86
2018-07-11T03:42:25.962Z,93.05
2018-07-11T03:43:25.979Z,92.67
2018-07-11T03:44:25.996Z,93.15
2018-07-11T03:45:26.013Z,92.76
2018-07-11T03:46:26.031Z,92.76
2018-07-11T03:47:26.047Z,92.86
2018-07-11T03:48:26.065Z,93.15
2018-07-11T03:49:26.081Z,92.86
2018-07-11T03:50:26.099Z,92.86
2018-07-11T03:51:26.116Z,92.91
2018-07-11T03:52:26.182Z,92.96
2018-07-11T03:53:26.149Z,92.81
2018-07-11T03:54:26.165Z,93.01
2018-07-11T03:55:26.185Z,93.05
2018-07-11T03:56:26.199Z,93.15
2018-07-11T03:57:26.218Z,93.15
2018-07-11T03:58:26.233Z,92.33
2018-07-11T03:59:26.253Z,92.43
2018-07-11T04:00:26.268Z,92.43
2018-07-11T04:01:26.284Z,92.14
2018-07-11T04:02:26.302Z,92.33
2018-07-11T04:03:26.318Z,93.10
2018-07-11T04:04:26.333Z,92.91
2018-07-11T04:05:26.352Z,92.72
2018-07-11T04:06:26.369Z,92.72
2018-07-11T04:07:26.386Z,93.19
2018-07-11T04:08:26.403Z,93.10
2018-07-11T04:09:26.419Z,92.91
2018-07-11T04:10:26.439Z,92.72
2018-07-11T04:11:26.453Z,93.29
2018-07-11T04:12:26.469Z,92.72
2018-07-11T04:13:26.487Z,92.72
2018-07-11T04:14:26.503Z,92.62
2018-07-11T04:15:26.572Z,92.52
2018-07-11T04:16:26.536Z,93.29
2018-07-11T04:17:26.557Z,92.81
2018-07-11T04:18:26.569Z,93.10
2018-07-11T04:19:26.587Z,93.19
2018-07-11T04:20:26.604Z,92.91
2018-07-11T04:21:26.685Z,92.62
2018-07-11T04:22:26.639Z,92.81
2018-07-11T04:23:26.656Z,93.01
2018-07-11T04:24:26.680Z,93.10
2018-07-11T04:25:26.689Z,92.33
2018-07-11T04:26:26.705Z,92.43
2018-07-11T04:27:26.814Z,92.43
2018-07-11T04:28:26.739Z,92.33
2018-07-11T04:29:26.755Z,92.52
2018-07-11T04:30:26.772Z,92.43
2018-07-11T04:31:26.795Z,92.43
2018-07-11T04:32:26.805Z,92.43
2018-07-11T04:33:26.866Z,92.43
2018-07-11T04:34:26.840Z,92.33
2018-07-11T04:35:26.856Z,92.24
2018-07-11T04:36:26.879Z,92.43
2018-07-11T04:37:26.895Z,91.85
2018-07-11T04:38:26.910Z,91.75
2018-07-11T04:39:26.925Z,91.56
2018-07-11T04:40:26.940Z,91.75
2018-07-11T04:41:26.957Z,91.85
2018-07-11T04:42:26.978Z,91.85
2018-07-11T04:43:26.991Z,92.24
2018-07-11T04:44:27.006Z,91.66
2018-07-11T04:45:27.024Z,91.85
2018-07-11T04:46:27.042Z,91.85
2018-07-11T04:47:27.060Z,92.05
2018-07-11T04:48:27.075Z,91.85
2018-07-11T04:49:27.092Z,91.85
2018-07-11T04:50:27.110Z,91.95
2018-07-11T04:51:27.127Z,91.75
2018-07-11T04:52:27.142Z,91.85
2018-07-11T04:53:27.158Z,91.66
2018-07-11T04:54:27.175Z,91.28
2018-07-11T04:55:27.192Z,91.66
2018-07-11T04:56:27.207Z,92.05
2018-07-11T04:57:27.226Z,92.24
2018-07-11T04:58:27.243Z,92.05
2018-07-11T04:59:27.261Z,92.43
2018-07-11T05:00:27.276Z,92.24
2018-07-11T05:01:27.293Z,92.52
2018-07-11T05:02:27.309Z,91.66
2018-07-11T05:03:27.328Z,91.47
2018-07-11T05:04:27.371Z,92.43
2018-07-11T05:05:27.362Z,92.14
2018-07-11T05:06:27.381Z,92.62
2018-07-11T05:07:27.394Z,91.47
2018-07-11T05:08:27.409Z,91.66
2018-07-11T05:09:27.428Z,91.56
2018-07-11T05:10:27.497Z,92.62
2018-07-11T05:11:27.461Z,92.24
2018-07-11T05:12:27.477Z,92.52
2018-07-11T05:13:27.494Z,92.43
2018-07-11T05:14:27.515Z,92.43
2018-07-11T05:15:27.536Z,92.52
2018-07-11T05:16:27.551Z,92.24
2018-07-11T05:17:27.561Z,92.62
2018-07-11T05:18:27.580Z,92.52
2018-07-11T05:19:27.595Z,92.52
2018-07-11T05:20:27.613Z,92.52
2018-07-11T05:21:27.628Z,92.38
2018-07-11T05:22:27.645Z,91.71
2018-07-11T05:23:27.663Z,91.80
2018-07-11T05:24:27.682Z,91.85
2018-07-11T05:25:27.696Z,91.61
2018-07-11T05:26:27.713Z,91.99
2018-07-11T05:27:27.729Z,91.90
2018-07-11T05:28:27.757Z,91.56
2018-07-11T05:29:27.762Z,91.90
2018-07-11T05:30:27.781Z,91.61
2018-07-11T05:31:27.801Z,91.71
2018-07-11T05:32:27.814Z,91.80
2018-07-11T05:33:27.833Z,91.80
2018-07-11T05:34:27.846Z,91.61
2018-07-11T05:35:27.863Z,91.42
2018-07-11T05:36:27.924Z,91.90
2018-07-11T05:37:27.897Z,91.52
2018-07-11T05:38:27.914Z,91.61
2018-07-11T05:39:27.931Z,91.90
2018-07-11T05:40:27.947Z,91.61
2018-07-11T05:41:27.974Z,91.66
2018-07-11T05:42:28.013Z,91.61
2018-07-11T05:43:27.998Z,91.80
2018-07-11T05:44:28.015Z,91.52
2018-07-11T05:45:28.032Z,91.52
2018-07-11T05:46:28.048Z,91.99
2018-07-11T05:47:28.093Z,90.55
2018-07-11T05:48:28.081Z,90.55
2018-07-11T05:49:28.098Z,90.45
2018-07-11T05:50:28.115Z,90.65
2018-07-11T05:51:28.132Z,90.55
2018-07-11T05:52:28.150Z,91.52
2018-07-11T05:53:28.166Z,90.65
2018-07-11T05:54:28.182Z,90.75
2018-07-11T05:55:28.207Z,91.61
2018-07-11T05:56:28.219Z,91.03
2018-07-11T05:57:28.233Z,90.84
2018-07-11T05:58:28.253Z,91.27
2018-07-11T05:59:28.266Z,91.03
2018-07-11T06:00:28.283Z,90.55
2018-07-11T06:01:28.300Z,91.03
2018-07-11T06:02:28.316Z,90.94
2018-07-11T06:03:28.344Z,91.56
2018-07-11T06:04:28.361Z,91.36
2018-07-11T06:05:28.411Z,91.36
2018-07-11T06:06:28.385Z,90.98
2018-07-11T06:07:28.403Z,91.27
2018-07-11T06:08:28.419Z,91.36
2018-07-11T06:09:28.434Z,91.36
2018-07-11T06:10:28.451Z,91.17
2018-07-11T06:11:28.468Z,91.27
2018-07-11T06:12:28.484Z,91.08
2018-07-11T06:13:28.567Z,91.17
2018-07-11T06:14:28.518Z,91.17
2018-07-11T06:15:28.537Z,91.27
2018-07-11T06:16:28.581Z,91.36
2018-07-11T06:17:28.570Z,91.17
2018-07-11T06:18:28.587Z,91.36
2018-07-11T06:19:28.604Z,91.36
2018-07-11T06:20:28.621Z,91.46
2018-07-11T06:21:28.639Z,90.59
2018-07-11T06:22:28.654Z,90.89
2018-07-11T06:23:28.671Z,91.08
2018-07-11T06:24:28.729Z,90.55
2018-07-11T06:25:28.710Z,91.03
2018-07-11T06:26:28.725Z,90.26
2018-07-11T06:27:28.740Z,90.26
2018-07-11T06:28:28.756Z,90.45
2018-07-11T06:29:28.774Z,90.35
2018-07-11T06:30:28.860Z,89.78
2018-07-11T06:31:28.812Z,90.35
2018-07-11T06:32:28.826Z,90.26
2018-07-11T06:33:28.895Z,90.73
2018-07-11T06:34:28.859Z,90.45
2018-07-11T06:35:28.877Z,90.45
2018-07-11T06:36:28.931Z,90.35
2018-07-11T06:37:28.911Z,90.35
2018-07-11T06:38:28.929Z,90.45
2018-07-11T06:39:29.052Z,90.06
2018-07-11T06:40:28.964Z,90.73
2018-07-11T06:41:28.981Z,89.97
2018-07-11T06:42:29.048Z,90.35
2018-07-11T06:43:29.015Z,89.78
2018-07-11T06:44:29.099Z,89.97
2018-07-11T06:45:29.050Z,90.06
2018-07-11T06:46:29.071Z,90.20
2018-07-11T06:47:29.085Z,89.72
2018-07-11T06:48:29.196Z,90.01
2018-07-11T06:49:29.118Z,89.82
2018-07-11T06:50:29.136Z,89.72
2018-07-11T06:51:29.154Z,89.53
2018-07-11T06:52:29.170Z,88.85
2018-07-11T06:53:29.187Z,89.15
2018-07-11T06:54:29.283Z,89.53
2018-07-11T06:55:29.223Z,89.43
2018-07-11T06:56:29.239Z,90.30
2018-07-11T06:57:29.315Z,90.30
2018-07-11T06:58:29.277Z,89.92
2018-07-11T06:59:29.293Z,89.72
2018-07-11T07:00:29.309Z,89.92
2018-07-11T07:01:29.328Z,89.97
2018-07-11T07:02:29.348Z,90.01
2018-07-11T07:03:29.373Z,90.11
2018-07-11T07:04:29.378Z,90.50
2018-07-11T07:05:29.398Z,89.92
2018-07-11T07:06:29.413Z,90.20
2018-07-11T07:07:29.430Z,89.82
2018-07-11T07:08:29.447Z,90.20
2018-07-11T07:09:29.468Z,90.20
2018-07-11T07:10:29.482Z,90.11
2018-07-11T07:11:29.503Z,89.82
2018-07-11T07:12:29.516Z,90.11
2018-07-11T07:13:29.535Z,89.43
2018-07-11T07:14:29.552Z,89.53
2018-07-11T07:15:29.569Z,89.24
2018-07-11T07:16:29.622Z,89.00
2018-07-11T07:17:29.603Z,89.19
2018-07-11T07:18:29.621Z,89.58
2018-07-11T07:19:29.639Z,89.29
2018-07-11T07:20:29.655Z,89.14
2018-07-11T07:21:29.673Z,88.17
2018-07-11T07:22:29.720Z,87.50
2018-07-11T07:23:29.711Z,87.21
2018-07-11T07:24:29.727Z,88.17
2018-07-11T07:25:29.814Z,87.98
2018-07-11T07:26:29.761Z,88.27
2018-07-11T07:27:29.779Z,87.50
2018-07-11T07:28:29.794Z,87.88
2018-07-11T07:29:29.812Z,88.23
2018-07-11T07:30:29.832Z,88.51
2018-07-11T07:31:29.893Z,88.42
2018-07-11T07:32:29.864Z,88.42
2018-07-11T07:33:29.887Z,88.46
2018-07-11T07:34:29.902Z,87.79
2018-07-11T07:35:29.919Z,88.17
2018-07-11T07:36:29.936Z,87.98
2018-07-11T07:37:29.955Z,87.93
2018-07-11T07:38:29.971Z,87.45
2018-07-11T07:39:29.993Z,87.06
2018-07-11T07:40:30.010Z,87.06
2018-07-11T07:41:30.026Z,86.62
2018-07-11T07:42:30.049Z,86.24
2018-07-11T07:43:30.062Z,85.94
2018-07-11T07:44:30.079Z,85.89
2018-07-11T07:45:30.101Z,85.60
2018-07-11T07:46:30.125Z,85.75
2018-07-11T07:47:30.133Z,86.72
2018-07-11T07:48:30.152Z,86.52
2018-07-11T07:49:30.170Z,86.33
2018-07-11T07:50:30.230Z,86.48
2018-07-11T07:51:30.207Z,87.06
2018-07-11T07:52:30.223Z,87.26
2018-07-11T07:53:30.243Z,86.96
2018-07-11T07:54:30.260Z,87.26
2018-07-11T07:55:30.280Z,87.35
2018-07-11T07:56:30.304Z,88.27
2018-07-11T07:57:30.321Z,88.37
2018-07-11T07:58:30.333Z,88.08
2018-07-11T07:59:30.352Z,88.22
2018-07-11T08:00:30.396Z,87.93
2018-07-11T08:01:30.388Z,87.26
2018-07-11T08:02:30.406Z,87.06
2018-07-11T08:03:30.426Z,87.54
2018-07-11T08:04:30.441Z,87.74
2018-07-11T08:05:30.462Z,87.79
2018-07-11T08:06:30.481Z,87.93
2018-07-11T08:07:30.498Z,88.31
2018-07-11T08:08:30.515Z,88.02
2018-07-11T08:09:30.535Z,87.54
2018-07-11T08:10:30.553Z,87.10
2018-07-11T08:11:30.571Z,87.40
2018-07-11T08:12:30.614Z,86.38
2018-07-11T08:13:30.605Z,86.18
2018-07-11T08:14:30.625Z,86.18
2018-07-11T08:15:30.684Z,86.43
2018-07-11T08:16:30.661Z,86.18
2018-07-11T08:17:30.716Z,86.47
2018-07-11T08:18:30.697Z,86.47
2018-07-11T08:19:30.717Z,86.38
2018-07-11T08:20:30.735Z,87.05
2018-07-11T08:21:30.832Z,87.15
2018-07-11T08:22:30.805Z,86.76
2018-07-11T08:23:30.791Z,86.08
2018-07-11T08:24:30.806Z,86.14
2018-07-11T08:25:30.824Z,86.28
2018-07-11T08:26:30.844Z,86.47
2018-07-11T08:27:31.030Z,86.38
2018-07-11T08:28:30.881Z,85.37
2018-07-11T08:29:30.902Z,85.41
2018-07-11T08:30:30.918Z,85.89
2018-07-11T08:31:30.940Z,85.31
2018-07-11T08:32:30.954Z,85.70
2018-07-11T08:33:31.002Z,85.66
2018-07-11T08:34:31.033Z,86.24
2018-07-11T08:35:31.028Z,86.52
2018-07-11T08:36:31.029Z,85.80
2018-07-11T08:37:31.048Z,86.18
2018-07-11T08:38:31.082Z,85.50
2018-07-11T08:39:31.136Z,85.60
2018-07-11T08:40:31.105Z,84.83
2018-07-11T08:41:31.123Z,85.22
2018-07-11T08:42:31.143Z,84.30
2018-07-11T08:43:31.162Z,83.75
2018-07-11T08:44:31.177Z,83.75
2018-07-11T08:45:31.245Z,83.37
2018-07-11T08:46:31.218Z,83.81
2018-07-11T08:47:31.235Z,84.30
2018-07-11T08:48:31.256Z,84.20
2018-07-11T08:49:31.274Z,83.95
2018-07-11T08:50:31.296Z,83.47
2018-07-11T08:51:31.368Z,83.12
2018-07-11T08:52:31.330Z,82.00
2018-07-11T08:53:31.356Z,81.62
2018-07-11T08:54:31.620Z,81.56
2018-07-11T08:55:31.390Z,80.46
2018-07-11T08:56:31.407Z,81.13
2018-07-11T08:57:31.476Z,82.93
2018-07-11T08:58:31.457Z,82.83
2018-07-11T08:59:31.472Z,82.39
2018-07-11T09:00:31.488Z,81.81
2018-07-11T09:01:31.502Z,81.37
2018-07-11T09:02:31.527Z,80.92
2018-07-11T09:03:31.546Z,79.70
2018-07-11T09:04:31.675Z,79.12
2018-07-11T09:05:31.580Z,79.82
2018-07-11T09:06:31.603Z,80.88
2018-07-11T09:07:31.623Z,80.79
2018-07-11T09:08:31.639Z,81.17
2018-07-11T09:09:31.661Z,81.17
2018-07-11T09:10:31.704Z,81.95
2018-07-11T09:11:31.699Z,81.71
2018-07-11T09:12:31.717Z,82.68
2018-07-11T09:13:31.738Z,83.70
2018-07-11T09:14:31.763Z,82.93
2018-07-11T09:15:31.781Z,83.37
2018-07-11T09:16:31.800Z,83.61
2018-07-11T09:17:31.817Z,83.16
2018-07-11T09:18:31.837Z,81.71
2018-07-11T09:19:31.857Z,81.90
2018-07-11T09:20:31.877Z,82.68
2018-07-11T09:21:31.897Z,81.85
2018-07-11T09:22:31.917Z,81.07
2018-07-11T09:23:31.940Z,81.37
2018-07-11T09:24:31.958Z,81.27
2018-07-11T09:25:31.980Z,81.56
2018-07-11T09:26:32.004Z,81.56
2018-07-11T09:27:32.018Z,80.98
2018-07-11T09:28:32.060Z,81.17
2018-07-11T09:29:32.056Z,80.92
2018-07-11T09:30:32.125Z,79.95
2018-07-11T09:31:32.097Z,80.01
2018-07-11T09:32:32.117Z,80.30
2018-07-11T09:33:32.233Z,80.30
2018-07-11T09:34:32.157Z,79.82
2018-07-11T09:35:32.175Z,79.91
2018-07-11T09:36:32.195Z,80.79
2018-07-11T09:37:32.221Z,80.11
2018-07-11T09:38:32.236Z,80.49
2018-07-11T09:39:32.264Z,80.11
2018-07-11T09:40:32.302Z,80.49
2018-07-11T09:41:32.395Z,80.98
2018-07-11T09:42:32.326Z,82.20
2018-07-11T09:43:32.336Z,81.95
2018-07-11T09:44:32.355Z,79.60
2018-07-11T09:45:32.426Z,78.64
2018-07-11T09:46:32.465Z,79.02
2018-07-11T09:47:32.416Z,79.12
2018-07-11T09:48:32.439Z,78.83
2018-07-11T09:49:32.460Z,77.80
2018-07-11T09:50:32.475Z,78.15
2018-07-11T09:51:32.598Z,78.59
2018-07-11T09:52:32.517Z,79.08
2018-07-11T09:53:32.537Z,79.37
2018-07-11T09:54:32.557Z,79.17
2018-07-11T09:55:32.580Z,80.24
2018-07-11T09:56:32.622Z,78.77
2018-07-11T09:57:32.669Z,78.00
2018-07-11T09:58:32.639Z,78.00
2018-07-11T09:59:32.679Z,78.29
2018-07-11T10:00:32.680Z,77.70
2018-07-11T10:01:32.704Z,77.90
2018-07-11T10:03:32.792Z,78.92
2018-07-11T10:04:32.760Z,79.41
2018-07-11T10:05:32.820Z,78.97
2018-07-11T10:06:32.814Z,77.94
2018-07-11T10:07:32.825Z,78.48
2018-07-11T10:08:32.845Z,79.90
2018-07-11T10:09:32.865Z,79.06
2018-07-11T10:10:32.893Z,78.27
2018-07-11T10:11:32.940Z,75.62
2018-07-11T10:12:33.018Z,73.82
2018-07-11T10:13:32.945Z,74.07
2018-07-11T10:14:32.969Z,74.85
2018-07-11T10:15:33.040Z,74.24
2018-07-11T10:16:33.017Z,73.37
2018-07-11T10:17:33.033Z,72.37
2018-07-11T10:18:33.052Z,71.56
2018-07-11T10:19:33.072Z,72.33
2018-07-11T10:20:33.095Z,70.81
2018-07-11T10:21:33.235Z,72.11
2018-07-11T10:22:33.138Z,71.69
2018-07-11T10:23:33.159Z,70.81
2018-07-11T10:24:33.199Z,71.36
2018-07-11T10:25:33.204Z,74.43
2018-07-11T10:26:33.225Z,76.91
2018-07-11T10:27:33.251Z,78.23
2018-07-11T10:28:33.267Z,79.20
2018-07-11T10:29:33.288Z,79.35
2018-07-11T10:30:33.310Z,80.13
2018-07-11T10:31:33.332Z,80.71
2018-07-11T10:32:33.352Z,81.39
2018-07-11T10:33:33.493Z,82.57
2018-07-11T10:34:33.399Z,84.08
2018-07-11T10:35:33.417Z,84.01
2018-07-11T10:36:33.553Z,83.63
2018-07-11T10:37:33.463Z,83.15
2018-07-11T10:38:33.494Z,83.25
2018-07-11T10:39:33.502Z,82.86
2018-07-11T10:40:33.521Z,83.01
2018-07-11T10:41:33.543Z,84.27
2018-07-11T10:42:33.571Z,84.17
2018-07-11T10:43:33.590Z,84.56
2018-07-11T10:44:33.612Z,84.36
2018-07-11T10:46:33.651Z,84.27
2018-07-11T10:47:33.668Z,84.17
2018-07-11T10:48:33.752Z,84.08
2018-07-11T10:49:33.708Z,84.17
2018-07-11T10:50:33.784Z,84.17
2018-07-11T10:51:33.752Z,84.84
2018-07-11T10:52:33.774Z,85.29
2018-07-11T10:53:33.794Z,84.94
2018-07-11T10:54:33.853Z,84.08
2018-07-11T10:55:33.829Z,84.11
2018-07-11T10:56:33.903Z,84.17
2018-07-11T10:57:33.929Z,84.36
2018-07-11T10:58:33.887Z,84.11
2018-07-11T10:59:33.909Z,83.83
2018-07-11T11:00:37.197Z,83.48
2018-07-11T11:01:34.016Z,82.80
2018-07-11T11:02:34.025Z,83.18
2018-07-11T11:03:33.988Z,83.18
2018-07-11T11:04:34.009Z,82.80
2018-07-11T11:05:34.029Z,82.84
2018-07-11T11:06:34.069Z,83.18
2018-07-11T11:07:34.068Z,83.63
2018-07-11T11:08:34.123Z,83.83
2018-07-11T11:09:34.115Z,84.84
2018-07-11T11:10:34.128Z,85.24
2018-07-11T11:11:34.148Z,85.82
2018-07-11T11:12:34.241Z,85.58
2018-07-11T11:13:34.188Z,86.45
2018-07-11T11:14:34.251Z,85.68
2018-07-11T11:15:34.236Z,85.42
2018-07-11T11:16:34.249Z,86.10
2018-07-11T11:17:34.268Z,85.42
2018-07-11T11:18:34.304Z,85.72
2018-07-11T11:19:34.311Z,85.72
2018-07-11T11:20:34.327Z,85.42
2018-07-11T11:21:34.348Z,85.72
2018-07-11T11:22:34.367Z,86.06
2018-07-11T11:23:34.397Z,86.79
2018-07-11T11:24:34.440Z,86.69
2018-07-11T11:25:34.480Z,87.03
2018-07-11T11:26:34.499Z,86.74
2018-07-11T11:27:34.469Z,86.25
2018-07-11T11:28:34.485Z,85.68
2018-07-11T11:29:34.505Z,85.97
2018-07-11T11:30:34.586Z,86.89
2018-07-11T11:31:34.549Z,86.69
2018-07-11T11:32:34.616Z,87.57
2018-07-11T11:33:34.587Z,87.37
2018-07-11T11:34:34.604Z,86.89
2018-07-11T11:35:34.679Z,86.89
2018-07-11T11:36:34.644Z,86.25
2018-07-11T11:37:34.662Z,85.87
2018-07-11T11:38:34.686Z,85.97
2018-07-11T11:39:34.703Z,86.01
2018-07-11T11:40:34.721Z,85.91
2018-07-11T11:41:34.865Z,85.42
2018-07-11T11:42:35.002Z,86.01
2018-07-11T11:43:34.779Z,85.77
2018-07-11T11:44:34.850Z,85.97
2018-07-11T11:45:34.823Z,86.60
2018-07-11T11:46:34.839Z,87.76
2018-07-11T11:47:34.858Z,87.27
2018-07-11T11:48:34.877Z,87.03
2018-07-11T11:49:34.898Z,85.97
2018-07-11T11:50:34.918Z,85.52
2018-07-11T11:51:34.935Z,85.82
2018-07-11T11:52:34.965Z,85.33
2018-07-11T11:53:34.975Z,85.77
2018-07-11T11:54:34.995Z,86.69
2018-07-11T11:55:35.015Z,86.69
2018-07-11T11:56:35.087Z,86.60
2018-07-11T11:57:35.053Z,86.60
2018-07-11T11:58:35.099Z,86.65
2018-07-11T11:59:35.093Z,86.55
2018-07-11T12:00:35.112Z,86.45
2018-07-11T12:01:35.152Z,86.25
2018-07-11T12:02:35.151Z,86.65
2018-07-11T12:03:35.170Z,85.68
2018-07-11T12:04:35.189Z,85.97
2018-07-11T12:05:35.209Z,85.87
2018-07-11T12:06:35.229Z,86.55
2018-07-11T12:07:35.251Z,85.87
2018-07-11T12:08:35.268Z,85.97
2018-07-11T12:09:35.288Z,86.16
2018-07-11T12:10:35.307Z,86.16
2018-07-11T12:11:35.329Z,86.69
2018-07-11T12:12:35.347Z,87.27
2018-07-11T12:13:35.365Z,86.79
2018-07-11T12:14:35.385Z,86.93
2018-07-11T12:15:35.404Z,85.82
2018-07-11T12:16:35.424Z,85.72
2018-07-11T12:17:35.445Z,85.14
2018-07-11T12:18:35.466Z,85.24
2018-07-11T12:19:35.483Z,85.14
2018-07-11T12:20:35.501Z,84.11
2018-07-11T12:21:35.562Z,83.73
2018-07-11T12:22:35.547Z,83.86
2018-07-11T12:23:35.561Z,83.48
2018-07-11T12:24:35.590Z,83.67
2018-07-11T12:25:35.600Z,83.00
2018-07-11T12:26:35.621Z,83.09
2018-07-11T12:27:35.640Z,83.28
2018-07-11T12:28:35.659Z,83.09
2018-07-11T12:29:35.680Z,83.38
2018-07-11T12:30:35.705Z,82.65
2018-07-11T12:31:35.720Z,82.35
2018-07-11T12:32:35.738Z,83.18
2018-07-11T12:33:35.825Z,84.21
2018-07-11T12:34:35.780Z,84.69
2018-07-11T12:35:35.799Z,84.69
2018-07-11T12:36:35.838Z,84.31
2018-07-11T12:37:35.837Z,84.50
2018-07-11T12:38:35.909Z,84.89
2018-07-11T12:39:35.879Z,84.60
2018-07-11T12:40:35.898Z,84.16
2018-07-11T12:41:35.920Z,83.86
2018-07-11T12:42:35.937Z,84.16
2018-07-11T12:43:35.971Z,83.96
2018-07-11T12:44:35.983Z,83.86
2018-07-11T12:45:36.000Z,83.96
2018-07-11T12:46:36.019Z,84.16
2018-07-11T12:47:36.050Z,83.86
2018-07-11T12:48:36.063Z,84.25
2018-07-11T12:49:36.081Z,83.86
2018-07-11T12:50:36.148Z,83.77
2018-07-11T12:51:36.120Z,84.25
2018-07-11T12:52:36.137Z,84.74
2018-07-11T12:53:36.160Z,84.16
2018-07-11T12:54:36.180Z,84.16